sensor_id;sensor_type;location;lat;lon;timestamp;P1;durP1;ratioP1;P2;durP2;ratioP2
44536;SDS011;30245;51.966;6.292;2023-05-10T00:00:07;1.23;;;0.50;;
44536;SDS011;30245;51.966;6.292;2023-05-10T00:02:34;1.85;;;0.40;;
44536;SDS011;30245;51.966;6.292;2023-05-10T00:04:59;0.90;;;0.50;;
44536;SDS011;30245;51.966;6.292;2023-05-10T00:07:25;1.13;;;0.60;;
44536;SDS011;30245;51.966;6.292;2023-05-10T00:09:51;1.52;;;0.80;;
44536;SDS011;30245;51.966;6.292;2023-05-10T00:12:17;0.98;;;0.50;;
44536;SDS011;30245;51.966;6.292;2023-05-10T00:14:42;1.75;;;1.35;;
44536;SDS011;30245;51.966;6.292;2023-05-10T00:17:08;1.60;;;1.00;;
44536;SDS011;30245;51.966;6.292;2023-05-10T00:19:33;1.30;;;0.90;;
44536;SDS011;30245;51.966;6.292;2023-05-10T00:21:59;1.77;;;1.27;;
44536;SDS011;30245;51.966;6.292;2023-05-10T00:24:24;1.52;;;0.93;;
44536;SDS011;30245;51.966;6.292;2023-05-10T00:26:50;2.22;;;1.30;;
44536;SDS011;30245;51.966;6.292;2023-05-10T00:29:15;1.70;;;1.27;;
44536;SDS011;30245;51.966;6.292;2023-05-10T00:31:41;1.40;;;0.98;;
44536;SDS011;30245;51.966;6.292;2023-05-10T00:34:06;2.00;;;1.17;;
44536;SDS011;30245;51.966;6.292;2023-05-10T00:36:32;2.10;;;1.35;;
44536;SDS011;30245;51.966;6.292;2023-05-10T00:38:58;1.90;;;1.38;;
44536;SDS011;30245;51.966;6.292;2023-05-10T00:41:23;2.33;;;1.83;;
44536;SDS011;30245;51.966;6.292;2023-05-10T00:43:49;2.83;;;2.15;;
44536;SDS011;30245;51.966;6.292;2023-05-10T00:46:15;2.95;;;2.47;;
44536;SDS011;30245;51.966;6.292;2023-05-10T00:48:41;2.40;;;2.08;;
44536;SDS011;30245;51.966;6.292;2023-05-10T00:51:08;3.50;;;2.47;;
44536;SDS011;30245;51.966;6.292;2023-05-10T00:53:34;2.58;;;2.17;;
44536;SDS011;30245;51.966;6.292;2023-05-10T00:56:00;3.72;;;3.42;;
44536;SDS011;30245;51.966;6.292;2023-05-10T00:58:27;6.15;;;4.05;;
44536;SDS011;30245;51.966;6.292;2023-05-10T01:00:54;4.10;;;3.67;;
44536;SDS011;30245;51.966;6.292;2023-05-10T01:03:21;4.90;;;3.85;;
44536;SDS011;30245;51.966;6.292;2023-05-10T01:05:47;3.70;;;3.40;;
44536;SDS011;30245;51.966;6.292;2023-05-10T01:08:13;4.35;;;3.92;;
44536;SDS011;30245;51.966;6.292;2023-05-10T01:10:39;5.20;;;3.45;;
44536;SDS011;30245;51.966;6.292;2023-05-10T01:13:05;3.33;;;3.03;;
44536;SDS011;30245;51.966;6.292;2023-05-10T01:15:31;5.38;;;3.67;;
44536;SDS011;30245;51.966;6.292;2023-05-10T01:17:57;5.05;;;4.55;;
44536;SDS011;30245;51.966;6.292;2023-05-10T01:20:23;4.82;;;4.25;;
44536;SDS011;30245;51.966;6.292;2023-05-10T01:26:13;5.97;;;4.75;;
44536;SDS011;30245;51.966;6.292;2023-05-10T01:31:59;5.68;;;4.93;;
44536;SDS011;30245;51.966;6.292;2023-05-10T01:37:36;9.85;;;7.55;;
44536;SDS011;30245;51.966;6.292;2023-05-10T01:40:32;10.60;;;6.78;;
44536;SDS011;30245;51.966;6.292;2023-05-10T01:43:19;8.90;;;6.85;;
44536;SDS011;30245;51.966;6.292;2023-05-10T01:48:25;11.97;;;9.60;;
44536;SDS011;30245;51.966;6.292;2023-05-10T01:50:53;12.38;;;9.25;;
44536;SDS011;30245;51.966;6.292;2023-05-10T01:53:20;16.48;;;11.05;;
44536;SDS011;30245;51.966;6.292;2023-05-10T01:55:48;17.33;;;13.05;;
44536;SDS011;30245;51.966;6.292;2023-05-10T01:58:19;18.95;;;12.10;;
44536;SDS011;30245;51.966;6.292;2023-05-10T02:00:47;20.42;;;13.25;;
44536;SDS011;30245;51.966;6.292;2023-05-10T02:03:14;22.88;;;14.15;;
44536;SDS011;30245;51.966;6.292;2023-05-10T02:05:43;20.50;;;15.38;;
44536;SDS011;30245;51.966;6.292;2023-05-10T02:08:10;23.00;;;16.77;;
44536;SDS011;30245;51.966;6.292;2023-05-10T02:10:36;24.92;;;17.50;;
44536;SDS011;30245;51.966;6.292;2023-05-10T02:13:04;27.83;;;18.00;;
44536;SDS011;30245;51.966;6.292;2023-05-10T02:15:31;27.45;;;17.83;;
44536;SDS011;30245;51.966;6.292;2023-05-10T02:17:58;29.15;;;19.45;;
44536;SDS011;30245;51.966;6.292;2023-05-10T02:20:25;26.03;;;17.47;;
44536;SDS011;30245;51.966;6.292;2023-05-10T02:22:52;32.53;;;20.73;;
44536;SDS011;30245;51.966;6.292;2023-05-10T02:25:21;29.38;;;18.45;;
44536;SDS011;30245;51.966;6.292;2023-05-10T02:27:48;30.73;;;20.27;;
44536;SDS011;30245;51.966;6.292;2023-05-10T02:30:15;32.90;;;19.80;;
44536;SDS011;30245;51.966;6.292;2023-05-10T02:32:41;35.75;;;22.30;;
44536;SDS011;30245;51.966;6.292;2023-05-10T02:35:09;32.90;;;21.30;;
44536;SDS011;30245;51.966;6.292;2023-05-10T02:37:36;31.60;;;20.63;;
44536;SDS011;30245;51.966;6.292;2023-05-10T02:40:03;38.70;;;24.90;;
44536;SDS011;30245;51.966;6.292;2023-05-10T02:42:31;39.03;;;23.20;;
44536;SDS011;30245;51.966;6.292;2023-05-10T02:45:01;39.35;;;22.92;;
44536;SDS011;30245;51.966;6.292;2023-05-10T02:47:30;32.55;;;21.00;;
44536;SDS011;30245;51.966;6.292;2023-05-10T02:49:56;36.20;;;21.60;;
44536;SDS011;30245;51.966;6.292;2023-05-10T02:52:23;32.90;;;21.98;;
44536;SDS011;30245;51.966;6.292;2023-05-10T02:54:52;36.20;;;23.95;;
44536;SDS011;30245;51.966;6.292;2023-05-10T02:57:22;34.78;;;22.60;;
44536;SDS011;30245;51.966;6.292;2023-05-10T02:59:52;34.92;;;22.63;;
44536;SDS011;30245;51.966;6.292;2023-05-10T03:02:18;32.33;;;21.42;;
44536;SDS011;30245;51.966;6.292;2023-05-10T03:04:44;32.60;;;21.02;;
44536;SDS011;30245;51.966;6.292;2023-05-10T03:07:10;31.63;;;19.50;;
44536;SDS011;30245;51.966;6.292;2023-05-10T03:09:36;33.15;;;20.90;;
44536;SDS011;30245;51.966;6.292;2023-05-10T03:12:11;35.00;;;21.30;;
44536;SDS011;30245;51.966;6.292;2023-05-10T03:17:39;30.20;;;20.02;;
44536;SDS011;30245;51.966;6.292;2023-05-10T03:20:19;27.48;;;18.40;;
44536;SDS011;30245;51.966;6.292;2023-05-10T03:22:50;30.50;;;18.23;;
44536;SDS011;30245;51.966;6.292;2023-05-10T03:25:20;32.53;;;20.15;;
44536;SDS011;30245;51.966;6.292;2023-05-10T03:27:47;27.97;;;18.17;;
44536;SDS011;30245;51.966;6.292;2023-05-10T03:30:14;32.17;;;21.50;;
44536;SDS011;30245;51.966;6.292;2023-05-10T03:32:40;29.50;;;19.05;;
44536;SDS011;30245;51.966;6.292;2023-05-10T03:35:07;36.75;;;21.52;;
44536;SDS011;30245;51.966;6.292;2023-05-10T03:37:37;29.55;;;20.48;;
44536;SDS011;30245;51.966;6.292;2023-05-10T03:40:03;30.50;;;19.92;;
44536;SDS011;30245;51.966;6.292;2023-05-10T03:42:29;35.75;;;21.05;;
44536;SDS011;30245;51.966;6.292;2023-05-10T03:44:54;30.88;;;19.65;;
44536;SDS011;30245;51.966;6.292;2023-05-10T03:47:20;34.88;;;20.77;;
44536;SDS011;30245;51.966;6.292;2023-05-10T03:49:46;33.38;;;21.60;;
44536;SDS011;30245;51.966;6.292;2023-05-10T03:52:11;31.73;;;20.38;;
44536;SDS011;30245;51.966;6.292;2023-05-10T03:54:37;31.67;;;20.55;;
44536;SDS011;30245;51.966;6.292;2023-05-10T03:57:03;29.73;;;19.23;;
44536;SDS011;30245;51.966;6.292;2023-05-10T03:59:28;32.15;;;20.50;;
44536;SDS011;30245;51.966;6.292;2023-05-10T04:01:54;38.45;;;23.90;;
44536;SDS011;30245;51.966;6.292;2023-05-10T04:04:20;35.33;;;21.13;;
44536;SDS011;30245;51.966;6.292;2023-05-10T04:06:46;39.22;;;24.98;;
44536;SDS011;30245;51.966;6.292;2023-05-10T04:09:12;34.38;;;23.33;;
44536;SDS011;30245;51.966;6.292;2023-05-10T04:11:38;37.38;;;25.17;;
44536;SDS011;30245;51.966;6.292;2023-05-10T04:14:04;43.45;;;26.67;;
44536;SDS011;30245;51.966;6.292;2023-05-10T04:16:29;37.92;;;25.58;;
44536;SDS011;30245;51.966;6.292;2023-05-10T04:18:55;44.50;;;26.13;;
44536;SDS011;30245;51.966;6.292;2023-05-10T04:21:21;43.30;;;26.33;;
44536;SDS011;30245;51.966;6.292;2023-05-10T04:23:46;43.53;;;25.52;;
44536;SDS011;30245;51.966;6.292;2023-05-10T04:26:12;46.08;;;27.05;;
44536;SDS011;30245;51.966;6.292;2023-05-10T04:28:38;46.65;;;29.17;;
44536;SDS011;30245;51.966;6.292;2023-05-10T04:31:07;42.58;;;27.58;;
44536;SDS011;30245;51.966;6.292;2023-05-10T04:33:35;45.03;;;27.83;;
44536;SDS011;30245;51.966;6.292;2023-05-10T04:36:01;43.67;;;26.90;;
44536;SDS011;30245;51.966;6.292;2023-05-10T04:38:27;44.85;;;27.55;;
44536;SDS011;30245;51.966;6.292;2023-05-10T04:40:53;53.15;;;29.98;;
44536;SDS011;30245;51.966;6.292;2023-05-10T04:43:19;44.13;;;27.33;;
44536;SDS011;30245;51.966;6.292;2023-05-10T04:45:45;40.85;;;23.48;;
44536;SDS011;30245;51.966;6.292;2023-05-10T04:48:11;43.30;;;26.65;;
44536;SDS011;30245;51.966;6.292;2023-05-10T04:50:37;41.90;;;27.00;;
44536;SDS011;30245;51.966;6.292;2023-05-10T04:53:03;46.70;;;26.27;;
44536;SDS011;30245;51.966;6.292;2023-05-10T04:55:29;41.05;;;23.27;;
44536;SDS011;30245;51.966;6.292;2023-05-10T04:57:54;40.13;;;24.38;;
44536;SDS011;30245;51.966;6.292;2023-05-10T05:00:22;41.60;;;25.38;;
44536;SDS011;30245;51.966;6.292;2023-05-10T05:02:48;46.45;;;28.13;;
44536;SDS011;30245;51.966;6.292;2023-05-10T05:05:13;41.30;;;24.92;;
44536;SDS011;30245;51.966;6.292;2023-05-10T05:07:39;37.92;;;24.00;;
44536;SDS011;30245;51.966;6.292;2023-05-10T05:10:05;34.83;;;22.63;;
44536;SDS011;30245;51.966;6.292;2023-05-10T05:12:32;45.17;;;24.98;;
44536;SDS011;30245;51.966;6.292;2023-05-10T05:14:57;41.35;;;24.50;;
44536;SDS011;30245;51.966;6.292;2023-05-10T05:17:23;37.95;;;23.83;;
44536;SDS011;30245;51.966;6.292;2023-05-10T05:19:49;39.08;;;24.02;;
44536;SDS011;30245;51.966;6.292;2023-05-10T05:22:14;39.15;;;22.25;;
44536;SDS011;30245;51.966;6.292;2023-05-10T05:24:40;45.78;;;26.45;;
44536;SDS011;30245;51.966;6.292;2023-05-10T05:27:05;40.63;;;24.30;;
44536;SDS011;30245;51.966;6.292;2023-05-10T05:29:31;45.80;;;26.13;;
44536;SDS011;30245;51.966;6.292;2023-05-10T05:31:57;37.70;;;20.90;;
44536;SDS011;30245;51.966;6.292;2023-05-10T05:34:23;42.47;;;23.20;;
44536;SDS011;30245;51.966;6.292;2023-05-10T05:36:49;43.40;;;25.05;;
44536;SDS011;30245;51.966;6.292;2023-05-10T05:39:15;37.50;;;21.75;;
44536;SDS011;30245;51.966;6.292;2023-05-10T05:41:40;40.33;;;23.52;;
44536;SDS011;30245;51.966;6.292;2023-05-10T05:44:06;36.97;;;20.63;;
44536;SDS011;30245;51.966;6.292;2023-05-10T05:46:32;39.53;;;24.15;;
44536;SDS011;30245;51.966;6.292;2023-05-10T05:48:57;39.45;;;24.13;;
44536;SDS011;30245;51.966;6.292;2023-05-10T05:51:23;36.72;;;20.85;;
44536;SDS011;30245;51.966;6.292;2023-05-10T05:53:48;31.17;;;19.60;;
44536;SDS011;30245;51.966;6.292;2023-05-10T05:56:14;33.25;;;19.80;;
44536;SDS011;30245;51.966;6.292;2023-05-10T05:58:39;38.35;;;22.50;;
44536;SDS011;30245;51.966;6.292;2023-05-10T06:01:05;33.85;;;21.48;;
44536;SDS011;30245;51.966;6.292;2023-05-10T06:03:31;34.25;;;19.58;;
44536;SDS011;30245;51.966;6.292;2023-05-10T06:05:57;31.77;;;20.92;;
44536;SDS011;30245;51.966;6.292;2023-05-10T06:08:23;33.50;;;20.88;;
44536;SDS011;30245;51.966;6.292;2023-05-10T06:10:48;30.60;;;20.30;;
44536;SDS011;30245;51.966;6.292;2023-05-10T06:13:14;34.60;;;21.13;;
44536;SDS011;30245;51.966;6.292;2023-05-10T06:15:40;31.17;;;20.45;;
44536;SDS011;30245;51.966;6.292;2023-05-10T06:18:06;29.05;;;19.20;;
44536;SDS011;30245;51.966;6.292;2023-05-10T06:20:31;39.25;;;22.13;;
44536;SDS011;30245;51.966;6.292;2023-05-10T06:22:57;39.50;;;21.15;;
44536;SDS011;30245;51.966;6.292;2023-05-10T06:25:23;34.75;;;20.73;;
44536;SDS011;30245;51.966;6.292;2023-05-10T06:27:48;39.58;;;22.55;;
44536;SDS011;30245;51.966;6.292;2023-05-10T06:30:14;35.63;;;21.98;;
44536;SDS011;30245;51.966;6.292;2023-05-10T06:32:40;36.70;;;21.67;;
44536;SDS011;30245;51.966;6.292;2023-05-10T06:35:06;32.70;;;19.00;;
44536;SDS011;30245;51.966;6.292;2023-05-10T06:37:32;44.15;;;23.58;;
44536;SDS011;30245;51.966;6.292;2023-05-10T06:39:59;39.17;;;23.35;;
44536;SDS011;30245;51.966;6.292;2023-05-10T06:42:25;36.40;;;20.42;;
44536;SDS011;30245;51.966;6.292;2023-05-10T06:44:51;36.55;;;20.55;;
44536;SDS011;30245;51.966;6.292;2023-05-10T06:47:17;33.90;;;19.95;;
44536;SDS011;30245;51.966;6.292;2023-05-10T06:49:43;33.22;;;20.13;;
44536;SDS011;30245;51.966;6.292;2023-05-10T06:52:08;33.20;;;19.65;;
44536;SDS011;30245;51.966;6.292;2023-05-10T06:54:34;34.95;;;20.13;;
44536;SDS011;30245;51.966;6.292;2023-05-10T06:56:59;29.50;;;19.08;;
44536;SDS011;30245;51.966;6.292;2023-05-10T06:59:25;31.63;;;20.08;;
44536;SDS011;30245;51.966;6.292;2023-05-10T07:01:50;35.90;;;20.33;;
44536;SDS011;30245;51.966;6.292;2023-05-10T07:04:16;27.40;;;19.15;;
44536;SDS011;30245;51.966;6.292;2023-05-10T07:06:42;33.00;;;22.95;;
44536;SDS011;30245;51.966;6.292;2023-05-10T07:11:36;26.08;;;18.25;;
44536;SDS011;30245;51.966;6.292;2023-05-10T07:14:02;32.17;;;20.20;;
44536;SDS011;30245;51.966;6.292;2023-05-10T07:16:28;31.83;;;20.42;;
44536;SDS011;30245;51.966;6.292;2023-05-10T07:18:53;31.65;;;19.73;;
44536;SDS011;30245;51.966;6.292;2023-05-10T07:21:19;29.98;;;19.05;;
44536;SDS011;30245;51.966;6.292;2023-05-10T07:23:45;23.85;;;18.48;;
44536;SDS011;30245;51.966;6.292;2023-05-10T07:26:10;26.95;;;19.50;;
44536;SDS011;30245;51.966;6.292;2023-05-10T07:28:36;34.35;;;20.70;;
44536;SDS011;30245;51.966;6.292;2023-05-10T07:31:03;30.60;;;21.33;;
44536;SDS011;30245;51.966;6.292;2023-05-10T07:33:29;27.80;;;20.33;;
44536;SDS011;30245;51.966;6.292;2023-05-10T07:35:55;30.70;;;20.90;;
44536;SDS011;30245;51.966;6.292;2023-05-10T07:38:20;28.73;;;20.30;;
44536;SDS011;30245;51.966;6.292;2023-05-10T07:40:46;24.65;;;17.70;;
44536;SDS011;30245;51.966;6.292;2023-05-10T07:43:12;31.27;;;19.35;;
44536;SDS011;30245;51.966;6.292;2023-05-10T07:45:37;27.67;;;17.88;;
44536;SDS011;30245;51.966;6.292;2023-05-10T07:48:03;27.77;;;16.75;;
44536;SDS011;30245;51.966;6.292;2023-05-10T07:50:28;34.00;;;19.55;;
44536;SDS011;30245;51.966;6.292;2023-05-10T07:52:54;27.92;;;17.13;;
44536;SDS011;30245;51.966;6.292;2023-05-10T07:55:20;28.40;;;16.90;;
44536;SDS011;30245;51.966;6.292;2023-05-10T07:57:46;24.80;;;16.30;;
44536;SDS011;30245;51.966;6.292;2023-05-10T08:00:12;28.13;;;17.35;;
44536;SDS011;30245;51.966;6.292;2023-05-10T08:02:41;25.48;;;17.65;;
44536;SDS011;30245;51.966;6.292;2023-05-10T08:05:07;31.77;;;17.25;;
44536;SDS011;30245;51.966;6.292;2023-05-10T08:07:32;29.48;;;18.13;;
44536;SDS011;30245;51.966;6.292;2023-05-10T08:09:58;29.05;;;19.88;;
44536;SDS011;30245;51.966;6.292;2023-05-10T08:12:24;24.92;;;16.98;;
44536;SDS011;30245;51.966;6.292;2023-05-10T08:14:49;24.77;;;16.80;;
44536;SDS011;30245;51.966;6.292;2023-05-10T08:17:15;28.52;;;17.15;;
44536;SDS011;30245;51.966;6.292;2023-05-10T08:19:40;27.48;;;18.02;;
44536;SDS011;30245;51.966;6.292;2023-05-10T08:22:06;25.13;;;16.92;;
44536;SDS011;30245;51.966;6.292;2023-05-10T08:24:32;25.75;;;17.02;;
44536;SDS011;30245;51.966;6.292;2023-05-10T08:26:59;24.93;;;17.97;;
44536;SDS011;30245;51.966;6.292;2023-05-10T08:29:25;25.10;;;16.42;;
44536;SDS011;30245;51.966;6.292;2023-05-10T08:31:51;25.70;;;16.40;;
44536;SDS011;30245;51.966;6.292;2023-05-10T08:34:16;29.90;;;18.67;;
44536;SDS011;30245;51.966;6.292;2023-05-10T08:36:42;26.17;;;17.90;;
44536;SDS011;30245;51.966;6.292;2023-05-10T08:39:07;29.38;;;19.20;;
44536;SDS011;30245;51.966;6.292;2023-05-10T08:41:34;32.55;;;19.77;;
44536;SDS011;30245;51.966;6.292;2023-05-10T08:44:02;36.20;;;20.67;;
44536;SDS011;30245;51.966;6.292;2023-05-10T08:46:29;32.80;;;20.67;;
44536;SDS011;30245;51.966;6.292;2023-05-10T08:48:58;31.77;;;18.25;;
44536;SDS011;30245;51.966;6.292;2023-05-10T08:51:29;28.35;;;16.50;;
44536;SDS011;30245;51.966;6.292;2023-05-10T08:53:58;26.20;;;17.75;;
44536;SDS011;30245;51.966;6.292;2023-05-10T08:56:24;24.70;;;16.45;;
44536;SDS011;30245;51.966;6.292;2023-05-10T08:58:50;24.55;;;16.27;;
44536;SDS011;30245;51.966;6.292;2023-05-10T09:01:16;23.70;;;15.77;;
44536;SDS011;30245;51.966;6.292;2023-05-10T09:03:45;22.05;;;14.10;;
44536;SDS011;30245;51.966;6.292;2023-05-10T09:06:12;20.67;;;14.85;;
44536;SDS011;30245;51.966;6.292;2023-05-10T09:08:38;22.95;;;15.25;;
44536;SDS011;30245;51.966;6.292;2023-05-10T09:11:06;22.58;;;14.75;;
44536;SDS011;30245;51.966;6.292;2023-05-10T09:13:32;21.38;;;16.75;;
44536;SDS011;30245;51.966;6.292;2023-05-10T09:15:58;21.77;;;15.18;;
44536;SDS011;30245;51.966;6.292;2023-05-10T09:18:24;22.23;;;15.77;;
44536;SDS011;30245;51.966;6.292;2023-05-10T09:20:49;27.40;;;16.52;;
44536;SDS011;30245;51.966;6.292;2023-05-10T09:23:15;23.98;;;15.27;;
44536;SDS011;30245;51.966;6.292;2023-05-10T09:25:41;20.27;;;15.05;;
44536;SDS011;30245;51.966;6.292;2023-05-10T09:28:07;16.83;;;12.45;;
44536;SDS011;30245;51.966;6.292;2023-05-10T09:30:34;25.83;;;15.93;;
44536;SDS011;30245;51.966;6.292;2023-05-10T09:33:00;22.77;;;14.68;;
44536;SDS011;30245;51.966;6.292;2023-05-10T09:35:27;22.00;;;13.95;;
44536;SDS011;30245;51.966;6.292;2023-05-10T09:37:54;23.70;;;14.35;;
44536;SDS011;30245;51.966;6.292;2023-05-10T09:40:22;19.80;;;13.43;;
44536;SDS011;30245;51.966;6.292;2023-05-10T09:42:55;19.70;;;13.35;;
44536;SDS011;30245;51.966;6.292;2023-05-10T09:45:26;20.73;;;13.30;;
44536;SDS011;30245;51.966;6.292;2023-05-10T09:47:53;17.88;;;11.40;;
44536;SDS011;30245;51.966;6.292;2023-05-10T09:50:20;14.75;;;10.93;;
44536;SDS011;30245;51.966;6.292;2023-05-10T09:55:13;14.35;;;10.32;;
44536;SDS011;30245;51.966;6.292;2023-05-10T09:57:38;19.58;;;11.45;;
44536;SDS011;30245;51.966;6.292;2023-05-10T10:00:05;17.23;;;11.23;;
44536;SDS011;30245;51.966;6.292;2023-05-10T10:02:32;17.15;;;12.52;;
44536;SDS011;30245;51.966;6.292;2023-05-10T10:04:58;16.00;;;12.10;;
44536;SDS011;30245;51.966;6.292;2023-05-10T10:07:26;14.82;;;10.57;;
44536;SDS011;30245;51.966;6.292;2023-05-10T10:09:52;15.15;;;11.40;;
44536;SDS011;30245;51.966;6.292;2023-05-10T10:12:18;17.15;;;11.13;;
44536;SDS011;30245;51.966;6.292;2023-05-10T10:14:45;15.65;;;10.57;;
44536;SDS011;30245;51.966;6.292;2023-05-10T10:17:15;16.23;;;12.00;;
44536;SDS011;30245;51.966;6.292;2023-05-10T10:19:41;17.33;;;9.63;;
44536;SDS011;30245;51.966;6.292;2023-05-10T10:22:07;14.07;;;9.32;;
44536;SDS011;30245;51.966;6.292;2023-05-10T10:24:35;13.57;;;9.38;;
44536;SDS011;30245;51.966;6.292;2023-05-10T10:27:07;11.18;;;7.82;;
44536;SDS011;30245;51.966;6.292;2023-05-10T10:29:58;12.00;;;8.20;;
44536;SDS011;30245;51.966;6.292;2023-05-10T10:35:42;7.05;;;6.35;;
44536;SDS011;30245;51.966;6.292;2023-05-10T10:38:10;12.98;;;7.03;;
44536;SDS011;30245;51.966;6.292;2023-05-10T10:40:38;6.53;;;5.88;;
44536;SDS011;30245;51.966;6.292;2023-05-10T10:46:43;6.47;;;5.15;;
44536;SDS011;30245;51.966;6.292;2023-05-10T10:48:38;6.88;;;4.57;;
44536;SDS011;30245;51.966;6.292;2023-05-10T10:51:05;5.90;;;4.80;;
44536;SDS011;30245;51.966;6.292;2023-05-10T10:53:30;5.70;;;3.60;;
44536;SDS011;30245;51.966;6.292;2023-05-10T10:56:07;3.85;;;3.45;;
44536;SDS011;30245;51.966;6.292;2023-05-10T10:58:38;5.60;;;4.57;;
44536;SDS011;30245;51.966;6.292;2023-05-10T11:01:17;3.58;;;3.28;;
44536;SDS011;30245;51.966;6.292;2023-05-10T11:06:30;3.88;;;3.33;;
44536;SDS011;30245;51.966;6.292;2023-05-10T11:09:11;3.85;;;2.25;;
44536;SDS011;30245;51.966;6.292;2023-05-10T11:11:52;2.97;;;2.47;;
44536;SDS011;30245;51.966;6.292;2023-05-10T11:14:23;2.90;;;2.70;;
44536;SDS011;30245;51.966;6.292;2023-05-10T11:16:49;2.70;;;1.58;;
44536;SDS011;30245;51.966;6.292;2023-05-10T11:19:15;3.13;;;1.58;;
44536;SDS011;30245;51.966;6.292;2023-05-10T11:21:48;3.92;;;2.25;;
44536;SDS011;30245;51.966;6.292;2023-05-10T11:24:18;3.00;;;1.67;;
44536;SDS011;30245;51.966;6.292;2023-05-10T11:26:45;3.95;;;2.15;;
44536;SDS011;30245;51.966;6.292;2023-05-10T11:29:15;2.50;;;2.30;;
44536;SDS011;30245;51.966;6.292;2023-05-10T11:31:44;3.53;;;2.08;;
44536;SDS011;30245;51.966;6.292;2023-05-10T11:34:11;4.22;;;1.60;;
44536;SDS011;30245;51.966;6.292;2023-05-10T11:36:50;5.03;;;1.80;;
44536;SDS011;30245;51.966;6.292;2023-05-10T11:39:16;3.78;;;2.00;;
44536;SDS011;30245;51.966;6.292;2023-05-10T11:41:42;3.90;;;2.50;;
44536;SDS011;30245;51.966;6.292;2023-05-10T11:44:08;2.63;;;2.10;;
44536;SDS011;30245;51.966;6.292;2023-05-10T11:46:34;2.75;;;2.25;;
44536;SDS011;30245;51.966;6.292;2023-05-10T11:49:01;3.30;;;1.27;;
44536;SDS011;30245;51.966;6.292;2023-05-10T11:51:29;3.60;;;1.67;;
44536;SDS011;30245;51.966;6.292;2023-05-10T11:53:57;3.10;;;2.20;;
44536;SDS011;30245;51.966;6.292;2023-05-10T11:56:23;2.40;;;1.48;;
44536;SDS011;30245;51.966;6.292;2023-05-10T11:58:54;2.65;;;1.85;;
44536;SDS011;30245;51.966;6.292;2023-05-10T12:01:22;2.17;;;1.48;;
44536;SDS011;30245;51.966;6.292;2023-05-10T12:03:50;1.67;;;1.42;;
44536;SDS011;30245;51.966;6.292;2023-05-10T12:06:18;2.85;;;1.30;;
44536;SDS011;30245;51.966;6.292;2023-05-10T12:08:45;2.80;;;1.63;;
44536;SDS011;30245;51.966;6.292;2023-05-10T12:11:12;3.38;;;2.17;;
44536;SDS011;30245;51.966;6.292;2023-05-10T12:13:42;2.70;;;2.05;;
44536;SDS011;30245;51.966;6.292;2023-05-10T12:16:24;2.03;;;1.70;;
44536;SDS011;30245;51.966;6.292;2023-05-10T12:18:53;4.22;;;2.08;;
44536;SDS011;30245;51.966;6.292;2023-05-10T12:21:21;3.53;;;2.30;;
44536;SDS011;30245;51.966;6.292;2023-05-10T12:23:48;3.88;;;2.00;;
44536;SDS011;30245;51.966;6.292;2023-05-10T12:26:16;3.35;;;1.92;;
44536;SDS011;30245;51.966;6.292;2023-05-10T12:28:42;2.03;;;1.73;;
44536;SDS011;30245;51.966;6.292;2023-05-10T12:31:08;3.05;;;2.08;;
44536;SDS011;30245;51.966;6.292;2023-05-10T12:33:44;2.35;;;1.20;;
44536;SDS011;30245;51.966;6.292;2023-05-10T12:36:10;1.83;;;1.23;;
44536;SDS011;30245;51.966;6.292;2023-05-10T12:38:41;3.20;;;1.85;;
44536;SDS011;30245;51.966;6.292;2023-05-10T12:41:09;2.58;;;1.13;;
44536;SDS011;30245;51.966;6.292;2023-05-10T12:43:36;2.13;;;1.65;;
44536;SDS011;30245;51.966;6.292;2023-05-10T12:46:06;2.40;;;1.70;;
44536;SDS011;30245;51.966;6.292;2023-05-10T12:48:35;2.67;;;1.42;;
44536;SDS011;30245;51.966;6.292;2023-05-10T12:51:02;1.70;;;1.20;;
44536;SDS011;30245;51.966;6.292;2023-05-10T12:53:28;2.78;;;1.60;;
44536;SDS011;30245;51.966;6.292;2023-05-10T12:55:54;2.75;;;1.48;;
44536;SDS011;30245;51.966;6.292;2023-05-10T12:58:20;3.10;;;1.30;;
44536;SDS011;30245;51.966;6.292;2023-05-10T13:00:45;1.75;;;0.98;;
44536;SDS011;30245;51.966;6.292;2023-05-10T13:03:11;1.85;;;1.40;;
44536;SDS011;30245;51.966;6.292;2023-05-10T13:05:37;1.77;;;0.90;;
44536;SDS011;30245;51.966;6.292;2023-05-10T13:08:03;2.60;;;1.27;;
44536;SDS011;30245;51.966;6.292;2023-05-10T13:10:29;2.33;;;1.25;;
44536;SDS011;30245;51.966;6.292;2023-05-10T13:12:55;1.95;;;1.40;;
44536;SDS011;30245;51.966;6.292;2023-05-10T13:15:22;4.05;;;1.52;;
44536;SDS011;30245;51.966;6.292;2023-05-10T13:17:47;3.63;;;1.90;;
44536;SDS011;30245;51.966;6.292;2023-05-10T13:20:13;2.47;;;1.63;;
44536;SDS011;30245;51.966;6.292;2023-05-10T13:22:39;3.58;;;1.27;;
44536;SDS011;30245;51.966;6.292;2023-05-10T13:25:07;2.15;;;1.33;;
44536;SDS011;30245;51.966;6.292;2023-05-10T13:27:33;3.08;;;1.92;;
44536;SDS011;30245;51.966;6.292;2023-05-10T13:29:58;2.25;;;1.23;;
44536;SDS011;30245;51.966;6.292;2023-05-10T13:32:24;1.50;;;1.10;;
44536;SDS011;30245;51.966;6.292;2023-05-10T13:34:50;3.03;;;1.50;;
44536;SDS011;30245;51.966;6.292;2023-05-10T13:37:16;3.50;;;1.00;;
44536;SDS011;30245;51.966;6.292;2023-05-10T13:39:42;2.53;;;1.52;;
44536;SDS011;30245;51.966;6.292;2023-05-10T13:42:07;1.52;;;0.85;;
44536;SDS011;30245;51.966;6.292;2023-05-10T13:44:33;2.55;;;0.82;;
44536;SDS011;30245;51.966;6.292;2023-05-10T13:46:58;4.43;;;1.63;;
44536;SDS011;30245;51.966;6.292;2023-05-10T13:49:24;1.10;;;0.75;;
44536;SDS011;30245;51.966;6.292;2023-05-10T13:51:50;3.30;;;0.77;;
44536;SDS011;30245;51.966;6.292;2023-05-10T13:54:16;1.15;;;0.70;;
44536;SDS011;30245;51.966;6.292;2023-05-10T13:56:44;1.10;;;0.77;;
44536;SDS011;30245;51.966;6.292;2023-05-10T13:59:12;1.63;;;0.75;;
44536;SDS011;30245;51.966;6.292;2023-05-10T14:01:38;1.88;;;0.90;;
44536;SDS011;30245;51.966;6.292;2023-05-10T14:04:05;2.50;;;1.30;;
44536;SDS011;30245;51.966;6.292;2023-05-10T14:06:31;1.83;;;1.38;;
44536;SDS011;30245;51.966;6.292;2023-05-10T14:08:56;2.95;;;2.05;;
44536;SDS011;30245;51.966;6.292;2023-05-10T14:11:22;2.80;;;1.40;;
44536;SDS011;30245;51.966;6.292;2023-05-10T14:13:48;3.70;;;1.17;;
44536;SDS011;30245;51.966;6.292;2023-05-10T14:16:14;2.17;;;1.40;;
44536;SDS011;30245;51.966;6.292;2023-05-10T14:18:39;3.08;;;1.35;;
44536;SDS011;30245;51.966;6.292;2023-05-10T14:21:05;2.45;;;1.30;;
44536;SDS011;30245;51.966;6.292;2023-05-10T14:23:31;3.00;;;1.27;;
44536;SDS011;30245;51.966;6.292;2023-05-10T14:25:56;4.07;;;1.10;;
44536;SDS011;30245;51.966;6.292;2023-05-10T14:28:22;3.22;;;1.60;;
44536;SDS011;30245;51.966;6.292;2023-05-10T14:30:48;1.88;;;1.13;;
44536;SDS011;30245;51.966;6.292;2023-05-10T14:33:14;2.30;;;1.33;;
44536;SDS011;30245;51.966;6.292;2023-05-10T14:35:39;4.47;;;2.13;;
44536;SDS011;30245;51.966;6.292;2023-05-10T14:38:05;4.18;;;1.52;;
44536;SDS011;30245;51.966;6.292;2023-05-10T14:40:31;3.97;;;1.48;;
44536;SDS011;30245;51.966;6.292;2023-05-10T14:42:57;2.60;;;1.38;;
44536;SDS011;30245;51.966;6.292;2023-05-10T14:45:22;1.60;;;0.95;;
44536;SDS011;30245;51.966;6.292;2023-05-10T14:47:48;1.95;;;1.27;;
44536;SDS011;30245;51.966;6.292;2023-05-10T14:50:15;2.28;;;1.45;;
44536;SDS011;30245;51.966;6.292;2023-05-10T14:52:41;2.40;;;1.38;;
44536;SDS011;30245;51.966;6.292;2023-05-10T14:55:07;1.50;;;1.13;;
44536;SDS011;30245;51.966;6.292;2023-05-10T14:57:33;4.05;;;1.20;;
44536;SDS011;30245;51.966;6.292;2023-05-10T14:59:59;5.30;;;2.33;;